createdAt,value
2022-08-29T00:01:49.996Z,17.97
2022-08-29T00:04:16.891Z,17.98
2022-08-29T00:06:43.750Z,18.00
2022-08-29T00:09:10.568Z,18.06
2022-08-29T00:11:40.579Z,17.93
2022-08-29T00:14:20.994Z,17.82
2022-08-29T00:16:51.171Z,17.83
2022-08-29T00:19:21.732Z,17.82
2022-08-29T00:21:48.659Z,17.85
2022-08-29T00:24:17.097Z,17.88
2022-08-29T00:26:43.935Z,17.88
2022-08-29T00:29:11.141Z,17.70
2022-08-29T00:31:38.741Z,17.63
2022-08-29T00:34:05.638Z,17.62
2022-08-29T00:36:32.943Z,17.66
2022-08-29T00:38:59.811Z,17.64
2022-08-29T00:41:26.696Z,17.65
2022-08-29T00:43:53.640Z,17.66
2022-08-29T00:46:55.513Z,17.56
2022-08-29T00:49:42.752Z,17.50
2022-08-29T00:52:33.599Z,17.23
2022-08-29T00:55:09.899Z,17.17
2022-08-29T00:58:14.051Z,17.29
2022-08-29T01:00:43.623Z,17.29
2022-08-29T01:03:10.871Z,17.32
2022-08-29T01:05:38.144Z,17.31
2022-08-29T01:08:06.862Z,17.29
2022-08-29T01:10:54.434Z,17.28
2022-08-29T01:13:35.799Z,17.23
2022-08-29T01:16:05.467Z,17.20
2022-08-29T01:18:37.717Z,17.17
2022-08-29T01:21:16.498Z,17.08
2022-08-29T01:24:09.905Z,16.99
2022-08-29T01:26:37.523Z,16.97
2022-08-29T01:29:04.691Z,17.00
2022-08-29T01:31:56.796Z,17.07
2022-08-29T01:34:30.491Z,17.09
2022-08-29T01:37:03.481Z,17.07
2022-08-29T01:39:38.753Z,17.08
2022-08-29T01:42:11.486Z,17.15
2022-08-29T01:44:39.922Z,17.10
2022-08-29T01:47:08.861Z,17.11
2022-08-29T01:49:38.786Z,17.11
2022-08-29T01:52:08.957Z,17.07
2022-08-29T01:54:36.400Z,17.02
2022-08-29T01:57:03.897Z,16.93
2022-08-29T01:59:31.901Z,17.01
2022-08-29T02:02:38.279Z,16.92
2022-08-29T02:05:06.493Z,16.83
2022-08-29T02:07:33.401Z,16.84
2022-08-29T02:10:00.323Z,16.92
2022-08-29T02:12:27.432Z,16.89
2022-08-29T02:14:54.322Z,16.64
2022-08-29T02:17:21.487Z,16.55
2022-08-29T02:19:48.324Z,16.58
2022-08-29T02:22:24.385Z,16.64
2022-08-29T02:24:51.240Z,16.67
2022-08-29T02:27:20.664Z,16.66
2022-08-29T02:29:47.507Z,16.63
2022-08-29T02:32:16.564Z,16.64
2022-08-29T02:34:48.425Z,16.62
2022-08-29T02:37:16.842Z,16.56
2022-08-29T02:39:43.785Z,16.58
2022-08-29T02:42:10.710Z,16.62
2022-08-29T02:44:38.188Z,16.62
2022-08-29T02:47:05.375Z,16.58
2022-08-29T02:49:32.195Z,16.51
2022-08-29T02:51:59.453Z,16.47
2022-08-29T02:54:26.341Z,16.56
2022-08-29T02:56:53.137Z,16.59
2022-08-29T02:59:19.935Z,16.58
2022-08-29T03:01:46.786Z,16.47
2022-08-29T03:04:13.677Z,16.45
2022-08-29T03:06:40.468Z,16.44
2022-08-29T03:09:07.360Z,16.44
2022-08-29T03:11:35.615Z,16.41
2022-08-29T03:14:27.820Z,16.39
2022-08-29T03:16:54.939Z,16.33
2022-08-29T03:19:22.814Z,16.30
2022-08-29T03:21:49.666Z,16.31
2022-08-29T03:24:16.469Z,16.33
2022-08-29T03:26:56.754Z,16.34
2022-08-29T03:29:24.905Z,16.31
2022-08-29T03:31:51.783Z,16.23
2022-08-29T03:34:18.731Z,16.18
2022-08-29T03:37:09.285Z,16.14
2022-08-29T03:39:37.876Z,16.19
2022-08-29T03:42:06.523Z,16.22
2022-08-29T03:44:36.306Z,16.23
2022-08-29T03:47:04.510Z,16.15
2022-08-29T03:49:31.488Z,16.07
2022-08-29T03:51:58.933Z,16.04
2022-08-29T03:54:26.102Z,16.03
2022-08-29T03:56:53.434Z,16.08
2022-08-29T03:59:20.539Z,16.12
2022-08-29T04:01:48.403Z,16.07
2022-08-29T04:04:36.475Z,16.05
2022-08-29T04:07:06.466Z,16.02
2022-08-29T04:09:33.388Z,16.04
2022-08-29T04:12:00.321Z,16.05
2022-08-29T04:14:27.283Z,16.00
2022-08-29T04:16:58.034Z,15.97
2022-08-29T04:19:24.924Z,15.88
2022-08-29T04:21:51.730Z,15.79
2022-08-29T04:24:19.924Z,15.81
2022-08-29T04:26:46.796Z,15.84
2022-08-29T04:29:13.878Z,15.88
2022-08-29T04:31:43.542Z,15.84
2022-08-29T04:34:12.910Z,15.85
2022-08-29T04:36:42.857Z,15.86
2022-08-29T04:39:10.240Z,15.92
2022-08-29T04:41:39.197Z,15.79
2022-08-29T04:44:08.368Z,15.77
2022-08-29T04:46:35.656Z,15.70
2022-08-29T04:49:04.556Z,15.59
2022-08-29T04:51:34.703Z,15.61
2022-08-29T04:54:04.113Z,15.59
2022-08-29T04:56:31.227Z,15.44
2022-08-29T04:58:58.477Z,15.40
2022-08-29T05:01:27.244Z,15.41
2022-08-29T05:03:55.261Z,15.43
2022-08-29T05:06:24.078Z,15.46
2022-08-29T05:08:58.745Z,15.48
2022-08-29T05:11:31.925Z,15.42
2022-08-29T05:14:00.328Z,15.49
2022-08-29T05:16:29.866Z,15.53
2022-08-29T05:18:58.458Z,15.47
2022-08-29T05:21:35.183Z,15.40
2022-08-29T05:24:09.553Z,15.34
2022-08-29T05:26:41.628Z,15.38
2022-08-29T05:29:11.143Z,15.46
2022-08-29T05:31:41.820Z,15.54
2022-08-29T05:34:32.394Z,15.56
2022-08-29T05:37:17.489Z,15.57
2022-08-29T05:39:44.356Z,15.59
2022-08-29T05:42:12.572Z,15.64
2022-08-29T05:44:40.570Z,15.62
2022-08-29T05:47:11.185Z,15.59
2022-08-29T05:49:41.193Z,15.67
2022-08-29T05:52:09.533Z,15.75
2022-08-29T05:54:41.142Z,15.78
2022-08-29T05:57:15.354Z,15.79
2022-08-29T05:59:45.422Z,15.88
2022-08-29T06:02:13.043Z,15.81
2022-08-29T06:04:43.014Z,15.84
2022-08-29T06:07:10.933Z,16.01
2022-08-29T06:09:41.312Z,16.02
2022-08-29T06:12:12.645Z,15.95
2022-08-29T06:14:39.766Z,16.05
2022-08-29T06:17:09.189Z,16.30
2022-08-29T06:19:39.367Z,16.49
2022-08-29T06:22:10.316Z,16.61
2022-08-29T06:24:39.298Z,16.64
2022-08-29T06:27:06.848Z,16.66
2022-08-29T06:29:36.277Z,16.79
2022-08-29T06:32:12.117Z,16.90
2022-08-29T06:34:39.310Z,16.94
2022-08-29T06:37:06.220Z,17.01
2022-08-29T06:39:33.296Z,17.10
2022-08-29T06:42:00.239Z,17.14
2022-08-29T06:44:30.671Z,17.18
2022-08-29T06:46:59.128Z,17.25
2022-08-29T06:49:27.709Z,17.32
2022-08-29T06:51:58.402Z,17.39
2022-08-29T06:54:28.824Z,17.49
2022-08-29T06:56:58.112Z,17.59
2022-08-29T06:59:25.956Z,17.67
2022-08-29T07:01:55.135Z,17.72
2022-08-29T07:04:22.434Z,17.79
2022-08-29T07:06:53.475Z,17.84
2022-08-29T07:09:20.630Z,17.92
2022-08-29T07:11:47.637Z,18.04
2022-08-29T07:14:14.699Z,18.12
2022-08-29T07:16:42.528Z,18.24
2022-08-29T07:19:10.578Z,18.35
2022-08-29T07:21:38.685Z,18.47
2022-08-29T07:24:06.836Z,18.59
2022-08-29T07:26:42.483Z,18.73
2022-08-29T07:29:20.247Z,18.89
2022-08-29T07:31:48.437Z,19.05
2022-08-29T07:34:15.726Z,19.19
2022-08-29T07:36:43.293Z,19.32
2022-08-29T07:39:16.410Z,19.52
2022-08-29T07:41:45.180Z,19.68
2022-08-29T07:44:13.872Z,19.86
2022-08-29T07:46:41.565Z,20.02
2022-08-29T07:49:09.053Z,20.21
2022-08-29T07:51:36.375Z,20.41
2022-08-29T07:54:04.494Z,20.60
2022-08-29T07:56:40.984Z,20.81
2022-08-29T07:59:08.638Z,21.03
2022-08-29T08:01:36.598Z,21.27
2022-08-29T08:04:04.461Z,21.51
2022-08-29T08:06:31.349Z,21.71
2022-08-29T08:09:01.417Z,21.82
2022-08-29T08:11:28.578Z,22.13
2022-08-29T08:13:57.538Z,22.44
2022-08-29T08:16:27.510Z,22.67
2022-08-29T08:18:55.864Z,22.79
2022-08-29T08:21:25.610Z,22.92
2022-08-29T08:23:53.809Z,23.04
2022-08-29T08:26:21.754Z,23.22
2022-08-29T08:28:49.335Z,23.34
2022-08-29T08:31:18.304Z,23.64
2022-08-29T08:33:46.819Z,23.89
2022-08-29T08:36:28.704Z,24.02
2022-08-29T08:38:58.253Z,24.15
2022-08-29T08:41:44.712Z,24.25
2022-08-29T08:44:49.494Z,24.40
2022-08-29T08:47:25.897Z,24.30
2022-08-29T08:50:05.835Z,24.37
2022-08-29T08:56:46.414Z,24.64
2022-08-29T08:59:28.804Z,24.81
2022-08-29T09:02:09.047Z,25.00
2022-08-29T09:05:35.629Z,25.31
2022-08-29T09:08:42.774Z,25.53
2022-08-29T09:11:54.833Z,25.74
2022-08-29T09:15:07.431Z,25.79
2022-08-29T09:17:57.663Z,25.95
2022-08-29T09:20:30.704Z,26.16
2022-08-29T09:23:13.436Z,26.19
2022-08-29T09:25:40.546Z,26.37
2022-08-29T09:28:08.927Z,26.38
2022-08-29T09:31:22.743Z,26.47
2022-08-29T09:34:01.322Z,26.39
2022-08-29T09:36:53.475Z,26.65
2022-08-29T09:39:32.437Z,26.84
2022-08-29T09:42:13.818Z,26.98
2022-08-29T09:44:53.335Z,26.92
2022-08-29T09:47:29.940Z,26.97
2022-08-29T09:50:11.890Z,27.26
2022-08-29T09:52:56.761Z,27.34
2022-08-29T09:55:42.509Z,27.42
2022-08-29T09:58:21.367Z,27.49
2022-08-29T10:01:06.358Z,27.44
2022-08-29T10:03:40.523Z,27.47
2022-08-29T10:06:21.055Z,27.60
2022-08-29T10:09:23.863Z,27.57
2022-08-29T10:11:58.088Z,27.58
2022-08-29T10:14:49.724Z,27.55
2022-08-29T10:17:55.838Z,27.58
2022-08-29T10:20:40.813Z,27.77
2022-08-29T10:23:55.739Z,27.97
2022-08-29T10:26:37.274Z,28.17
2022-08-29T10:29:15.846Z,28.27
2022-08-29T10:31:55.901Z,27.93
2022-08-29T10:35:05.942Z,27.74
2022-08-29T10:37:53.286Z,28.19
2022-08-29T10:40:43.196Z,28.59
2022-08-29T10:43:41.689Z,28.69
2022-08-29T10:46:38.731Z,28.95
2022-08-29T10:49:36.108Z,29.11
2022-08-29T10:52:33.979Z,29.45
2022-08-29T10:55:49.028Z,29.77
2022-08-29T10:58:44.085Z,30.02
2022-08-29T11:01:33.250Z,30.20
2022-08-29T11:07:39.745Z,30.71
2022-08-29T11:10:17.795Z,30.92
2022-08-29T11:12:52.232Z,30.73
2022-08-29T11:15:26.295Z,30.86
2022-08-29T11:18:24.521Z,30.93
2022-08-29T11:20:59.325Z,30.33
2022-08-29T11:23:44.366Z,30.22
2022-08-29T11:26:58.164Z,31.07
2022-08-29T11:30:03.183Z,31.85
2022-08-29T11:33:12.740Z,32.30
2022-08-29T11:36:10.277Z,32.63
2022-08-29T11:39:05.145Z,33.08
2022-08-29T11:41:40.833Z,33.31
2022-08-29T11:44:31.612Z,33.59
2022-08-29T11:47:00.141Z,33.95
2022-08-29T11:49:43.249Z,34.07
2022-08-29T11:52:12.649Z,34.40
2022-08-29T11:54:40.012Z,34.42
2022-08-29T11:57:09.945Z,34.45
2022-08-29T11:59:49.056Z,33.70
2022-08-29T12:02:28.218Z,34.11
2022-08-29T12:05:02.423Z,34.15
2022-08-29T12:08:00.414Z,34.47
2022-08-29T12:10:53.043Z,34.71
2022-08-29T12:13:44.868Z,35.01
2022-08-29T12:16:16.037Z,35.33
2022-08-29T12:18:54.932Z,35.47
2022-08-29T12:21:54.479Z,35.56
2022-08-29T12:24:41.022Z,35.80
2022-08-29T12:28:18.140Z,35.84
2022-08-29T12:30:49.198Z,35.54
2022-08-29T12:34:09.085Z,35.72
2022-08-29T12:36:57.084Z,35.67
2022-08-29T12:40:09.580Z,34.27
2022-08-29T12:42:39.383Z,32.48
2022-08-29T12:45:27.019Z,31.49
2022-08-29T12:48:00.480Z,30.85
2022-08-29T12:50:45.133Z,30.46
2022-08-29T12:53:33.485Z,30.54
2022-08-29T12:56:20.829Z,30.70
2022-08-29T12:59:00.898Z,32.73
2022-08-29T13:01:38.003Z,34.16
2022-08-29T13:04:11.287Z,35.03
2022-08-29T13:07:00.881Z,35.30
2022-08-29T13:09:34.887Z,33.63
2022-08-29T13:12:27.452Z,31.89
2022-08-29T13:15:06.900Z,31.71
2022-08-29T13:17:42.674Z,33.38
2022-08-29T13:20:49.258Z,34.57
2022-08-29T13:23:27.761Z,35.15
2022-08-29T13:26:09.970Z,35.59
2022-08-29T13:29:00.096Z,35.76
2022-08-29T13:31:36.019Z,35.52
2022-08-29T13:34:20.659Z,35.56
2022-08-29T13:36:59.225Z,35.66
2022-08-29T13:39:41.418Z,35.24
2022-08-29T13:42:34.282Z,35.17
2022-08-29T13:45:11.916Z,35.56
2022-08-29T13:47:58.836Z,34.95
2022-08-29T13:50:27.712Z,35.03
2022-08-29T13:52:57.315Z,35.31
2022-08-29T13:55:25.772Z,35.55
2022-08-29T13:57:55.457Z,35.50
2022-08-29T14:00:32.385Z,35.63
2022-08-29T14:03:05.441Z,35.74
2022-08-29T14:05:33.037Z,35.61
2022-08-29T14:07:59.993Z,35.57
2022-08-29T14:10:27.060Z,35.13
2022-08-29T14:12:53.927Z,35.08
2022-08-29T14:15:21.234Z,35.08
2022-08-29T14:17:49.021Z,35.16
2022-08-29T14:20:18.800Z,35.30
2022-08-29T14:22:47.025Z,35.32
2022-08-29T14:25:17.656Z,35.13
2022-08-29T14:27:47.462Z,35.01
2022-08-29T14:30:20.924Z,34.85
2022-08-29T14:32:47.830Z,34.50
2022-08-29T14:35:25.686Z,34.33
2022-08-29T14:37:54.797Z,34.31
2022-08-29T14:40:22.669Z,34.33
2022-08-29T14:42:49.974Z,34.28
2022-08-29T14:45:16.950Z,34.25
2022-08-29T14:47:45.419Z,33.98
2022-08-29T14:50:14.327Z,33.91
2022-08-29T14:52:42.590Z,33.75
2022-08-29T14:55:12.246Z,33.72
2022-08-29T14:57:42.130Z,33.56
2022-08-29T15:00:14.661Z,33.44
2022-08-29T15:02:42.693Z,33.24
2022-08-29T15:05:11.867Z,33.09
2022-08-29T15:07:40.127Z,32.79
2022-08-29T15:10:08.933Z,32.37
2022-08-29T15:12:36.049Z,31.76
2022-08-29T15:15:05.725Z,31.11
2022-08-29T15:17:32.979Z,30.77
2022-08-29T15:22:47.498Z,30.35
2022-08-29T15:25:14.649Z,30.12
2022-08-29T15:27:42.409Z,29.89
2022-08-29T15:30:11.245Z,29.80
2022-08-29T15:32:38.975Z,29.70
2022-08-29T15:35:07.566Z,29.68
2022-08-29T15:37:41.149Z,29.55
2022-08-29T15:40:13.124Z,29.47
2022-08-29T15:42:40.983Z,29.41
2022-08-29T15:45:12.596Z,29.31
2022-08-29T15:47:40.402Z,29.37
2022-08-29T15:50:13.365Z,29.29
2022-08-29T15:52:40.183Z,29.24
2022-08-29T15:55:07.968Z,29.21
2022-08-29T15:57:42.345Z,29.14
2022-08-29T16:00:30.111Z,29.18
2022-08-29T16:03:00.571Z,29.14
2022-08-29T16:05:28.562Z,28.99
2022-08-29T16:07:55.394Z,28.94
2022-08-29T16:10:22.233Z,28.89
2022-08-29T16:12:49.113Z,28.79
2022-08-29T16:15:16.691Z,28.70
2022-08-29T16:17:43.621Z,28.61
2022-08-29T16:20:11.596Z,28.55
2022-08-29T16:22:40.689Z,28.46
2022-08-29T16:25:12.420Z,28.41
2022-08-29T16:27:39.482Z,28.33
2022-08-29T16:30:09.801Z,28.27
2022-08-29T16:32:37.582Z,28.27
2022-08-29T16:35:06.271Z,28.16
2022-08-29T16:37:33.812Z,28.11
2022-08-29T16:40:01.603Z,28.12
2022-08-29T16:42:30.561Z,28.09
2022-08-29T16:44:57.917Z,27.99
2022-08-29T16:47:24.701Z,27.93
2022-08-29T16:49:53.521Z,27.93
2022-08-29T16:52:20.444Z,27.83
2022-08-29T16:54:47.453Z,27.79
2022-08-29T16:57:16.762Z,27.78
2022-08-29T16:59:43.730Z,27.73
2022-08-29T17:02:10.674Z,27.65
2022-08-29T17:04:38.464Z,27.56
2022-08-29T17:07:05.673Z,27.55
2022-08-29T17:09:32.882Z,27.47
2022-08-29T17:12:03.434Z,27.46
2022-08-29T17:14:30.880Z,27.39
2022-08-29T17:16:57.954Z,27.34
2022-08-29T17:19:26.547Z,27.34
2022-08-29T17:21:54.055Z,27.28
2022-08-29T17:24:21.272Z,27.20
2022-08-29T17:26:48.729Z,27.15
2022-08-29T17:29:16.501Z,27.09
2022-08-29T17:31:44.327Z,27.02
2022-08-29T17:34:12.111Z,26.98
2022-08-29T17:36:41.784Z,26.92
2022-08-29T17:39:09.163Z,26.85
2022-08-29T17:41:37.267Z,26.77
2022-08-29T17:44:08.157Z,26.70
2022-08-29T17:46:35.153Z,26.65
2022-08-29T17:49:07.401Z,26.62
2022-08-29T17:51:36.676Z,26.55
2022-08-29T17:54:08.329Z,26.46
2022-08-29T17:56:45.970Z,26.37
2022-08-29T17:59:16.001Z,26.30
2022-08-29T18:01:43.363Z,26.10
2022-08-29T18:04:11.171Z,25.99
2022-08-29T18:06:38.629Z,25.94
2022-08-29T18:09:07.057Z,25.88
2022-08-29T18:11:37.711Z,25.68
2022-08-29T18:14:04.538Z,25.58
2022-08-29T18:16:31.512Z,25.53
2022-08-29T18:18:58.614Z,25.47
2022-08-29T18:21:26.037Z,25.40
2022-08-29T18:23:53.440Z,25.32
2022-08-29T18:26:22.847Z,25.11
2022-08-29T18:28:50.130Z,25.03
2022-08-29T18:31:18.979Z,24.96
2022-08-29T18:34:00.186Z,24.65
2022-08-29T18:36:29.368Z,24.44
2022-08-29T18:38:57.039Z,24.28
2022-08-29T18:41:23.881Z,24.16
2022-08-29T18:43:51.846Z,24.11
2022-08-29T18:46:18.829Z,24.05
2022-08-29T18:48:46.335Z,24.13
2022-08-29T18:51:14.605Z,24.09
2022-08-29T18:53:42.106Z,24.03
2022-08-29T18:56:09.229Z,23.88
2022-08-29T18:58:37.310Z,23.77
2022-08-29T19:01:27.987Z,23.71
2022-08-29T19:04:02.222Z,23.62
2022-08-29T19:06:29.314Z,23.58
2022-08-29T19:08:57.137Z,23.45
2022-08-29T19:11:25.277Z,23.38
2022-08-29T19:13:52.847Z,23.21
2022-08-29T19:16:22.679Z,23.16
2022-08-29T19:18:50.575Z,22.96
2022-08-29T19:21:17.423Z,22.79
2022-08-29T19:23:52.197Z,22.87
2022-08-29T19:26:29.139Z,22.97
2022-08-29T19:31:27.673Z,22.71
2022-08-29T19:33:55.045Z,22.69
2022-08-29T19:36:23.355Z,22.55
2022-08-29T19:38:50.850Z,22.36
2022-08-29T19:41:18.204Z,22.35
2022-08-29T19:43:45.436Z,22.36
2022-08-29T19:46:20.003Z,22.24
2022-08-29T19:48:51.309Z,22.23
2022-08-29T19:51:24.382Z,22.22
2022-08-29T19:53:57.204Z,22.14
2022-08-29T19:56:26.458Z,22.21
2022-08-29T19:58:53.962Z,22.25
2022-08-29T20:01:21.263Z,22.14
2022-08-29T20:03:48.402Z,22.14
2022-08-29T20:06:18.654Z,22.11
2022-08-29T20:08:47.548Z,21.98
2022-08-29T20:11:24.603Z,21.87
2022-08-29T20:13:57.270Z,21.76
2022-08-29T20:16:29.993Z,21.84
2022-08-29T20:18:57.564Z,21.89
2022-08-29T20:21:25.511Z,21.70
2022-08-29T20:23:57.737Z,21.77
2022-08-29T20:26:34.545Z,21.90
2022-08-29T20:29:06.017Z,21.86
2022-08-29T20:31:34.458Z,21.68
2022-08-29T20:34:01.962Z,21.64
2022-08-29T20:36:47.811Z,21.57
2022-08-29T20:39:18.023Z,21.52
2022-08-29T20:41:55.604Z,21.47
2022-08-29T20:44:32.929Z,21.46
2022-08-29T20:47:00.667Z,21.38
2022-08-29T20:49:27.644Z,21.42
2022-08-29T20:51:54.616Z,21.54
2022-08-29T20:54:24.218Z,21.47
2022-08-29T20:56:52.070Z,21.48
2022-08-29T20:59:19.888Z,21.43
2022-08-29T21:01:47.893Z,21.39
2022-08-29T21:04:34.514Z,21.34
2022-08-29T21:07:09.600Z,21.19
2022-08-29T21:09:40.250Z,21.11
2022-08-29T21:12:08.030Z,21.12
2022-08-29T21:14:34.939Z,21.18
2022-08-29T21:17:05.262Z,21.18
2022-08-29T21:19:33.128Z,21.16
2022-08-29T21:22:05.776Z,21.21
2022-08-29T21:24:33.804Z,21.10
2022-08-29T21:27:00.673Z,21.01
2022-08-29T21:29:28.420Z,20.95
2022-08-29T21:31:55.275Z,20.95
2022-08-29T21:34:23.318Z,20.86
2022-08-29T21:36:50.852Z,20.88
2022-08-29T21:39:28.395Z,20.83
2022-08-29T21:41:57.852Z,20.65
2022-08-29T21:44:27.809Z,20.50
2022-08-29T21:46:54.777Z,20.52
2022-08-29T21:49:21.935Z,20.53
2022-08-29T21:51:49.467Z,20.52
2022-08-29T21:54:18.083Z,20.52
2022-08-29T21:56:46.527Z,20.55
2022-08-29T21:59:16.361Z,20.46
2022-08-29T22:01:45.546Z,20.42
2022-08-29T22:04:19.435Z,20.34
2022-08-29T22:06:57.167Z,20.38
2022-08-29T22:09:24.053Z,20.36
2022-08-29T22:11:52.030Z,20.29
2022-08-29T22:14:18.890Z,20.15
2022-08-29T22:16:45.746Z,20.12
2022-08-29T22:19:16.503Z,20.21
2022-08-29T22:21:49.725Z,20.23
2022-08-29T22:24:18.136Z,20.13
2022-08-29T22:26:46.242Z,20.11
2022-08-29T22:29:15.758Z,20.04
2022-08-29T22:31:44.613Z,19.99
2022-08-29T22:34:15.050Z,19.88
2022-08-29T22:36:42.870Z,19.84
2022-08-29T22:39:10.387Z,19.83
2022-08-29T22:41:37.787Z,19.84
2022-08-29T22:46:54.019Z,19.91
2022-08-29T22:49:21.400Z,19.78
2022-08-29T22:51:48.894Z,19.61
2022-08-29T22:54:34.689Z,19.46
2022-08-29T22:57:14.524Z,19.39
2022-08-29T22:59:43.195Z,19.38
2022-08-29T23:02:12.300Z,19.40
2022-08-29T23:04:40.101Z,19.34
2022-08-29T23:07:08.069Z,19.48
2022-08-29T23:09:41.078Z,19.57
2022-08-29T23:12:09.831Z,19.66
2022-08-29T23:14:38.360Z,19.54
2022-08-29T23:17:07.860Z,19.34
2022-08-29T23:19:36.730Z,19.25
2022-08-29T23:22:08.963Z,19.20
2022-08-29T23:24:36.524Z,19.01
2022-08-29T23:27:03.766Z,19.09
2022-08-29T23:29:32.772Z,19.20
2022-08-29T23:32:00.967Z,19.17
2022-08-29T23:34:28.156Z,19.11
2022-08-29T23:36:55.149Z,19.18
2022-08-29T23:39:22.099Z,19.14
2022-08-29T23:41:49.478Z,19.08
2022-08-29T23:44:17.729Z,19.09
2022-08-29T23:46:44.932Z,19.10
2022-08-29T23:49:11.874Z,19.10
2022-08-29T23:51:38.804Z,18.96
2022-08-29T23:54:05.864Z,18.98
2022-08-29T23:56:32.808Z,19.03
2022-08-29T23:59:00.099Z,18.97
